Time;durP1;ratioP1;P1;durP2;ratioP2;P2;SDS_P1;SDS_P2;PMS_P1;PMS_P2;Temp;Humidity;BMP_temperature;BMP_pressure;BME280_temperature;BME280_humidity;BME280_pressure;Samples;Min_cycle;Max_cycle;Signal;HPM_P1;HPM_P2
2021/07/27 00:00:09;;;;;;;5.60;2.90;;;21.70;75.70;;;;;;2199983;57;20962;-67
2021/07/27 00:02:35;;;;;;;4.20;2.58;;;21.70;75.70;;;;;;2394645;57;20966;-67
2021/07/27 00:05:03;;;;;;;4.37;2.30;;;21.70;75.80;;;;;;2186693;57;21292;-68
2021/07/27 00:07:29;;;;;;;3.83;2.28;;;21.70;75.90;;;;;;2189450;57;21542;-67
2021/07/27 00:09:56;;;;;;;4.28;2.17;;;21.70;75.90;;;;;;2203709;57;21082;-67
2021/07/27 00:12:22;;;;;;;4.68;2.58;;;21.80;76.10;;;;;;2211275;57;21861;-67
2021/07/27 00:14:49;;;;;;;4.18;2.37;;;21.80;76.00;;;;;;2189837;57;21042;-67
2021/07/27 00:17:15;;;;;;;4.12;2.50;;;21.80;75.90;;;;;;2258932;57;21038;-67
2021/07/27 00:19:42;;;;;;;4.45;2.55;;;21.80;75.90;;;;;;2189994;58;21410;-68
2021/07/27 00:22:08;;;;;;;6.30;2.53;;;21.80;75.90;;;;;;2196772;57;21061;-67
2021/07/27 00:24:34;;;;;;;4.00;2.40;;;21.90;75.90;;;;;;2212391;57;21053;-68
2021/07/27 00:27:01;;;;;;;5.37;2.55;;;21.90;75.90;;;;;;2205816;57;21082;-69
2021/07/27 00:29:29;;;;;;;5.32;2.35;;;21.90;75.80;;;;;;2212146;57;22004;-70
2021/07/27 00:31:55;;;;;;;4.72;2.87;;;21.90;75.70;;;;;;2418598;57;20962;-69
2021/07/27 00:34:25;;;;;;;3.90;2.33;;;21.90;75.70;;;;;;2188507;57;21006;-69
2021/07/27 00:36:51;;;;;;;4.12;2.50;;;21.90;75.70;;;;;;2226922;57;21539;-68
2021/07/27 00:39:20;;;;;;;3.30;1.87;;;22.00;75.70;;;;;;2186382;58;21855;-67
2021/07/27 00:41:49;;;;;;;3.75;2.03;;;22.00;75.70;;;;;;2185575;58;21122;-67
2021/07/27 00:44:16;;;;;;;3.95;2.10;;;22.00;75.60;;;;;;2188505;58;21031;-68
2021/07/27 00:46:42;;;;;;;3.35;1.70;;;22.00;75.60;;;;;;2182727;58;21066;-69
2021/07/27 00:49:08;;;;;;;3.50;1.95;;;22.00;75.60;;;;;;2419741;57;21551;-69
2021/07/27 00:51:35;;;;;;;2.95;1.77;;;22.00;75.50;;;;;;2204121;57;20969;-68
2021/07/27 00:54:01;;;;;;;3.80;2.00;;;21.90;75.40;;;;;;2195055;57;21010;-68
2021/07/27 00:56:28;;;;;;;3.60;2.08;;;22.00;75.50;;;;;;2197317;57;20976;-67
2021/07/27 00:58:55;;;;;;;4.07;2.20;;;22.00;75.40;;;;;;2234658;57;20971;-68
2021/07/27 01:01:21;;;;;;;3.92;2.12;;;21.90;75.20;;;;;;2215709;57;21528;-67
2021/07/27 01:03:48;;;;;;;3.92;2.15;;;21.90;75.10;;;;;;2202621;57;21045;-69
2021/07/27 01:06:14;;;;;;;3.65;1.95;;;21.90;75.00;;;;;;2238476;57;20964;-67
2021/07/27 01:08:40;;;;;;;4.15;2.17;;;21.90;74.90;;;;;;2210042;57;20964;-67
2021/07/27 01:11:07;;;;;;;3.83;2.20;;;21.90;74.80;;;;;;2193003;57;21014;-69
2021/07/27 01:13:33;;;;;;;3.58;2.17;;;21.90;74.80;;;;;;2208472;57;21036;-69
2021/07/27 01:16:05;;;;;;;3.47;2.10;;;21.80;74.80;;;;;;2212153;57;20984;-67
2021/07/27 01:18:38;;;;;;;4.60;2.63;;;21.80;74.80;;;;;;2206308;57;20974;-67
2021/07/27 01:37:46;;;;;;;3.05;1.98;;;21.60;74.70;;;;;;2190329;57;21017;-68
2021/07/27 01:40:15;;;;;;;4.90;2.05;;;21.60;74.70;;;;;;2299223;57;20992;-67
2021/07/27 01:42:42;;;;;;;3.67;2.10;;;21.60;74.60;;;;;;2374647;57;21099;-67
2021/07/27 01:45:17;;;;;;;4.22;1.98;;;21.50;74.50;;;;;;2176204;58;21027;-68
2021/07/27 01:47:46;;;;;;;5.22;2.50;;;21.50;74.20;;;;;;2185201;57;20966;-68
2021/07/27 01:50:13;;;;;;;4.32;2.42;;;21.50;74.30;;;;;;2167370;58;20979;-67
2021/07/27 01:52:46;;;;;;;3.92;2.12;;;21.40;74.30;;;;;;2185263;58;22012;-67
2021/07/27 01:55:12;;;;;;;3.62;2.03;;;21.40;74.50;;;;;;2204985;57;21032;-71
2021/07/27 01:57:40;;;;;;;3.35;1.85;;;21.30;74.50;;;;;;2166562;58;20976;-68
2021/07/27 02:00:08;;;;;;;4.03;2.20;;;21.30;74.60;;;;;;2179292;58;20975;-69
2021/07/27 02:02:34;;;;;;;3.40;1.83;;;21.30;74.60;;;;;;2355423;57;21026;-70
2021/07/27 02:05:02;;;;;;;3.78;2.00;;;21.30;74.60;;;;;;2172023;58;20986;-71
2021/07/27 02:07:28;;;;;;;3.92;1.98;;;21.20;74.50;;;;;;2170028;58;20936;-69
2021/07/27 02:10:01;;;;;;;4.07;2.12;;;21.30;74.60;;;;;;2197391;57;21079;-69
2021/07/27 02:12:36;;;;;;;3.60;2.20;;;21.20;74.50;;;;;;2200511;57;21886;-68
2021/07/27 02:15:20;;;;;;;3.33;1.98;;;21.20;74.50;;;;;;2342738;57;21523;-67
2021/07/27 02:17:47;;;;;;;3.70;2.10;;;21.20;73.90;;;;;;2189868;57;22184;-70
2021/07/27 02:20:13;;;;;;;4.57;2.40;;;21.20;74.50;;;;;;2177527;57;20990;-67
2021/07/27 02:22:41;;;;;;;3.83;2.17;;;21.10;74.40;;;;;;2187026;57;20966;-67
2021/07/27 02:25:09;;;;;;;3.70;2.08;;;21.10;74.50;;;;;;2176668;58;20985;-69
2021/07/27 02:27:35;;;;;;;3.97;2.20;;;21.10;74.50;;;;;;2185641;58;21054;-70
2021/07/27 02:30:01;;;;;;;3.45;2.00;;;21.10;74.60;;;;;;2186032;58;20974;-67
2021/07/27 02:32:28;;;;;;;4.57;2.37;;;21.00;74.50;;;;;;2181424;58;21049;-67
2021/07/27 02:34:54;;;;;;;4.62;2.25;;;21.00;74.40;;;;;;2196955;57;21012;-66
2021/07/27 02:37:20;;;;;;;3.45;1.92;;;21.00;74.40;;;;;;2182852;57;21414;-68
2021/07/27 02:39:46;;;;;;;3.60;1.98;;;20.90;74.40;;;;;;2184242;58;21082;-69
2021/07/27 02:42:13;;;;;;;4.10;2.35;;;21.00;74.60;;;;;;2182618;58;21002;-67
2021/07/27 02:44:39;;;;;;;10.82;2.60;;;20.90;74.50;;;;;;2178411;57;20982;-68
2021/07/27 02:47:05;;;;;;;5.47;3.00;;;20.90;74.70;;;;;;2373314;57;20971;-70
2021/07/27 02:49:32;;;;;;;4.12;2.53;;;20.90;74.80;;;;;;2180151;58;21028;-67
2021/07/27 02:51:59;;;;;;;3.90;2.12;;;20.90;75.00;;;;;;2169987;58;21079;-68
2021/07/27 02:54:25;;;;;;;4.75;2.30;;;20.90;75.10;;;;;;2181019;58;21860;-70
2021/07/27 02:56:52;;;;;;;3.60;2.30;;;20.90;75.20;;;;;;2376845;57;20968;-71
2021/07/27 02:59:18;;;;;;;4.18;2.22;;;20.90;75.20;;;;;;2183950;57;21006;-67
2021/07/27 03:01:45;;;;;;;4.03;2.40;;;20.90;75.10;;;;;;2396053;57;20967;-71
2021/07/27 03:04:12;;;;;;;5.62;2.40;;;20.90;75.00;;;;;;2207958;58;20997;-69
2021/07/27 03:06:39;;;;;;;5.35;2.40;;;20.90;75.00;;;;;;2339681;57;21043;-67
2021/07/27 03:09:15;;;;;;;4.20;2.35;;;20.90;75.00;;;;;;2200122;57;20970;-67
2021/07/27 03:11:42;;;;;;;4.55;2.40;;;20.80;74.90;;;;;;2178772;58;20974;-67
2021/07/27 03:14:08;;;;;;;4.62;2.35;;;20.80;74.90;;;;;;2177040;58;21010;-68
2021/07/27 03:16:35;;;;;;;4.15;2.15;;;20.80;75.00;;;;;;2203977;57;20995;-67
2021/07/27 03:19:01;;;;;;;3.50;2.08;;;20.80;75.00;;;;;;2401276;57;21030;-67
2021/07/27 03:21:29;;;;;;;5.12;2.42;;;20.80;75.00;;;;;;2158967;58;1768360;-67
2021/07/27 03:23:55;;;;;;;3.83;2.40;;;20.80;75.00;;;;;;2357271;57;20973;-68
2021/07/27 03:26:22;;;;;;;6.25;2.50;;;20.80;75.00;;;;;;2178644;58;21039;-67
2021/07/27 03:28:50;;;;;;;4.47;2.62;;;20.80;74.80;;;;;;2181924;58;21071;-69
2021/07/27 03:31:16;;;;;;;3.97;2.05;;;20.80;74.80;;;;;;2177783;57;20948;-71
2021/07/27 03:33:43;;;;;;;3.58;2.40;;;20.70;74.70;;;;;;2357910;57;21277;-67
2021/07/27 03:36:09;;;;;;;3.70;2.42;;;20.70;74.70;;;;;;2206455;57;20980;-67
2021/07/27 03:38:36;;;;;;;3.92;2.03;;;20.70;74.70;;;;;;2204907;57;21051;-67
2021/07/27 03:41:06;;;;;;;5.12;2.45;;;20.70;74.60;;;;;;2193975;57;21006;-68
2021/07/27 03:43:32;;;;;;;5.22;2.37;;;20.70;74.70;;;;;;2209262;57;21537;-67
2021/07/27 03:45:59;;;;;;;3.83;2.40;;;20.70;74.80;;;;;;2192795;57;21040;-67
2021/07/27 03:48:25;;;;;;;3.97;2.33;;;20.70;74.90;;;;;;2195618;57;21684;-69
2021/07/27 03:50:52;;;;;;;3.75;2.05;;;20.70;74.90;;;;;;2195841;57;21056;-67
2021/07/27 03:53:20;;;;;;;3.50;2.10;;;20.60;74.90;;;;;;2212364;57;21262;-66
2021/07/27 03:55:46;;;;;;;5.22;2.25;;;20.70;74.90;;;;;;2183100;58;21112;-68
2021/07/27 03:58:13;;;;;;;3.95;2.53;;;20.60;74.90;;;;;;2207397;57;21044;-67
2021/07/27 04:00:39;;;;;;;4.03;2.53;;;20.60;74.90;;;;;;2214342;57;21003;-66
2021/07/27 04:03:06;;;;;;;4.18;2.45;;;20.60;74.90;;;;;;2216342;57;20998;-68
2021/07/27 04:05:36;;;;;;;3.62;2.33;;;20.60;75.00;;;;;;2214760;57;21069;-70
2021/07/27 04:08:04;;;;;;;5.18;2.45;;;20.60;75.00;;;;;;2212589;57;21012;-68
2021/07/27 04:10:32;;;;;;;3.50;2.10;;;20.60;75.00;;;;;;2191804;57;21100;-67
2021/07/27 04:12:59;;;;;;;3.70;1.90;;;20.60;75.20;;;;;;2206676;57;21039;-67
2021/07/27 04:15:43;;;;;;;4.37;2.28;;;20.60;75.20;;;;;;2211019;57;20972;-66
2021/07/27 04:18:09;;;;;;;3.87;2.00;;;20.60;74.90;;;;;;2216113;57;20980;-68
2021/07/27 04:20:35;;;;;;;3.75;2.10;;;20.60;75.20;;;;;;2220707;57;21000;-67
2021/07/27 04:23:02;;;;;;;3.45;1.98;;;20.60;75.20;;;;;;2243035;57;21036;-71
2021/07/27 04:25:29;;;;;;;3.53;2.10;;;20.60;75.20;;;;;;2206014;57;21040;-67
2021/07/27 04:27:56;;;;;;;3.92;1.98;;;20.60;75.20;;;;;;2210751;57;20984;-68
2021/07/27 04:30:23;;;;;;;3.33;2.15;;;20.60;75.20;;;;;;2189405;58;21018;-70
2021/07/27 04:32:49;;;;;;;4.12;2.15;;;20.60;75.20;;;;;;2197022;57;21564;-71
2021/07/27 04:35:15;;;;;;;3.92;2.33;;;20.60;75.20;;;;;;2214767;57;20976;-68
2021/07/27 04:37:42;;;;;;;3.35;2.10;;;20.60;75.20;;;;;;2190401;57;21024;-67
2021/07/27 04:40:09;;;;;;;3.55;2.05;;;20.60;75.20;;;;;;2184473;57;21042;-68
2021/07/27 04:42:35;;;;;;;3.40;1.83;;;20.60;75.30;;;;;;2209933;57;21045;-67
2021/07/27 04:45:03;;;;;;;4.18;2.22;;;20.60;75.30;;;;;;2215564;57;20964;-68
2021/07/27 04:47:32;;;;;;;6.35;2.58;;;20.60;75.40;;;;;;2424594;57;20992;-69
2021/07/27 04:49:58;;;;;;;3.65;1.90;;;20.60;75.50;;;;;;2214742;57;21868;-67
2021/07/27 04:52:25;;;;;;;4.28;2.17;;;20.60;75.60;;;;;;2217009;57;20952;-70
2021/07/27 04:54:55;;;;;;;4.47;2.28;;;20.60;75.70;;;;;;2213202;57;20964;-67
2021/07/27 04:57:21;;;;;;;3.45;2.20;;;20.60;75.70;;;;;;2191355;58;20983;-69
2021/07/27 04:59:48;;;;;;;4.72;2.10;;;20.60;76.00;;;;;;2237420;57;21057;-67
2021/07/27 05:02:17;;;;;;;3.62;2.12;;;20.60;76.10;;;;;;2197941;57;21036;-67
2021/07/27 05:04:44;;;;;;;2.83;1.77;;;20.70;76.30;;;;;;2214549;57;20992;-71
2021/07/27 05:07:11;;;;;;;3.60;2.00;;;20.70;76.40;;;;;;2264257;57;20972;-67
2021/07/27 05:09:37;;;;;;;4.65;2.42;;;20.70;76.50;;;;;;2404356;57;21901;-70
2021/07/27 05:12:04;;;;;;;4.22;2.10;;;20.80;76.70;;;;;;2197520;57;21000;-67
2021/07/27 05:14:31;;;;;;;4.72;2.20;;;20.80;76.80;;;;;;2240540;57;21048;-67
2021/07/27 05:17:10;;;;;;;3.95;2.30;;;20.90;76.90;;;;;;2214322;57;21841;-68
2021/07/27 05:19:52;;;;;;;6.55;2.85;;;21.00;76.30;;;;;;2222545;57;21802;-67
2021/07/27 05:22:20;;;;;;;5.12;2.85;;;21.00;76.80;;;;;;2216139;57;20975;-67
2021/07/27 05:24:49;;;;;;;4.40;3.00;;;21.00;76.70;;;;;;2205536;57;20968;-67
2021/07/27 05:27:15;;;;;;;5.60;2.97;;;21.10;76.70;;;;;;2214308;57;21044;-71
2021/07/27 05:29:42;;;;;;;4.95;2.85;;;21.10;76.60;;;;;;2214752;57;20984;-69
2021/07/27 05:32:08;;;;;;;4.37;2.25;;;21.20;76.60;;;;;;2192957;57;20970;-66
2021/07/27 05:34:37;;;;;;;3.83;2.20;;;21.20;76.60;;;;;;2208146;57;21094;-71
2021/07/27 05:37:06;;;;;;;4.03;2.45;;;21.30;76.80;;;;;;2192199;57;20982;-67
2021/07/27 05:39:33;;;;;;;4.22;2.62;;;21.40;76.70;;;;;;2193386;57;21011;-70
2021/07/27 05:42:02;;;;;;;4.50;2.47;;;21.40;76.90;;;;;;2190809;58;20996;-70
2021/07/27 05:44:29;;;;;;;4.62;2.20;;;21.50;76.90;;;;;;2259883;57;21080;-67
2021/07/27 05:46:55;;;;;;;5.80;3.12;;;21.50;76.70;;;;;;2204981;57;21825;-71
2021/07/27 05:49:23;;;;;;;4.47;2.53;;;21.60;76.60;;;;;;2205773;57;21194;-70
2021/07/27 05:51:49;;;;;;;5.62;2.55;;;21.60;76.40;;;;;;2180760;57;20988;-67
2021/07/27 05:54:18;;;;;;;4.18;2.53;;;21.70;76.60;;;;;;2216260;57;20980;-68
2021/07/27 05:56:47;;;;;;;4.87;2.80;;;21.70;76.60;;;;;;2196216;57;21042;-68
2021/07/27 05:59:14;;;;;;;4.57;3.00;;;21.80;76.70;;;;;;2202646;57;21045;-68
2021/07/27 06:01:42;;;;;;;4.53;2.92;;;21.90;76.70;;;;;;2179697;57;20979;-68
2021/07/27 06:04:09;;;;;;;4.72;2.50;;;21.90;76.60;;;;;;2262449;57;20975;-71
2021/07/27 06:06:35;;;;;;;3.95;2.20;;;22.00;76.70;;;;;;2194452;57;20994;-69
2021/07/27 06:09:06;;;;;;;5.53;2.92;;;22.10;76.90;;;;;;2209993;57;21000;-72
2021/07/27 06:11:36;;;;;;;4.03;2.60;;;22.10;76.60;;;;;;2189167;57;20986;-72
2021/07/27 06:14:06;;;;;;;4.07;2.53;;;22.20;76.60;;;;;;2179382;58;20966;-70
2021/07/27 06:16:39;;;;;;;3.80;2.33;;;22.20;76.40;;;;;;2396605;57;20966;-69
2021/07/27 06:19:08;;;;;;;;;;;22.30;76.30;;;;;;2266080;57;21099;-67
2021/07/27 06:21:38;;;;;;;3.60;1.92;;;22.40;75.40;;;;;;2204333;57;20088;-72
2021/07/27 06:24:06;;;;;;;3.97;2.42;;;22.40;76.40;;;;;;2209006;57;21068;-67
2021/07/27 06:26:32;;;;;;;4.72;2.60;;;22.50;76.60;;;;;;2318055;57;21655;-67
2021/07/27 06:29:01;;;;;;;4.30;2.60;;;22.50;76.40;;;;;;2204827;57;21521;-71
2021/07/27 06:31:27;;;;;;;4.28;2.67;;;22.60;76.30;;;;;;2424573;57;20963;-67
2021/07/27 06:33:54;;;;;;;4.32;2.70;;;22.60;76.20;;;;;;2193664;58;21055;-69
2021/07/27 06:36:20;;;;;;;5.03;3.08;;;22.70;76.10;;;;;;2194338;57;21046;-68
2021/07/27 06:38:47;;;;;;;5.25;3.10;;;22.70;75.70;;;;;;2195018;57;21049;-73
2021/07/27 06:41:13;;;;;;;5.05;2.65;;;22.80;75.70;;;;;;2397048;57;20982;-68
2021/07/27 06:43:40;;;;;;;4.30;2.83;;;22.80;75.70;;;;;;2198890;57;20998;-67
2021/07/27 06:46:06;;;;;;;5.78;2.83;;;22.80;75.60;;;;;;2214413;57;21075;-70
2021/07/27 06:48:32;;;;;;;5.05;2.95;;;22.90;75.60;;;;;;2386080;57;21008;-68
2021/07/27 06:50:58;;;;;;;5.37;3.08;;;22.90;75.40;;;;;;2198680;57;20990;-69
2021/07/27 06:53:26;;;;;;;5.25;3.50;;;23.00;75.40;;;;;;2193226;57;20995;-68
2021/07/27 06:55:55;;;;;;;6.07;3.10;;;23.00;75.00;;;;;;2303438;57;21857;-68
2021/07/27 06:58:21;;;;;;;3.87;2.70;;;23.10;75.20;;;;;;2215686;57;21974;-69
2021/07/27 07:00:48;;;;;;;6.68;3.28;;;23.10;75.60;;;;;;2425943;57;20970;-70
2021/07/27 07:03:15;;;;;;;3.85;2.47;;;23.20;75.60;;;;;;2200308;57;20967;-67
2021/07/27 07:05:42;;;;;;;5.15;3.20;;;23.20;75.60;;;;;;2420414;57;21047;-71
2021/07/27 07:08:11;;;;;;;5.25;3.00;;;23.30;75.50;;;;;;2210880;57;21138;-70
2021/07/27 07:10:39;;;;;;;4.28;2.72;;;23.40;75.10;;;;;;2407194;57;21072;-68
2021/07/27 07:13:05;;;;;;;4.43;2.92;;;23.40;75.20;;;;;;2206695;57;20979;-69
2021/07/27 07:15:34;;;;;;;5.22;2.78;;;23.50;75.40;;;;;;2193458;58;20983;-70
2021/07/27 07:18:00;;;;;;;4.40;2.92;;;23.50;75.20;;;;;;2173881;57;20978;-74
2021/07/27 07:20:27;;;;;;;4.22;2.60;;;23.60;75.20;;;;;;2198737;57;21019;-69
2021/07/27 07:22:55;;;;;;;4.45;2.72;;;23.60;75.20;;;;;;2211798;57;21012;-74
2021/07/27 07:25:25;;;;;;;4.25;2.42;;;23.70;75.20;;;;;;2259062;58;20998;-71
2021/07/27 07:27:55;;;;;;;4.15;2.42;;;23.80;75.30;;;;;;2195941;57;21006;-70
2021/07/27 07:30:25;;;;;;;3.45;2.40;;;23.80;74.90;;;;;;2208817;57;20974;-72
2021/07/27 07:32:52;;;;;;;4.05;2.40;;;23.90;75.00;;;;;;2190908;57;20991;-70
2021/07/27 07:35:23;;;;;;;4.95;2.80;;;23.90;74.80;;;;;;2216358;57;21830;-69
2021/07/27 07:37:49;;;;;;;4.30;2.70;;;24.00;74.80;;;;;;2219296;57;21016;-69
2021/07/27 07:40:18;;;;;;;4.03;2.58;;;24.00;74.60;;;;;;2176503;58;20952;-70
2021/07/27 07:42:44;;;;;;;3.85;2.47;;;24.10;74.70;;;;;;2200538;57;20982;-71
2021/07/27 07:45:10;;;;;;;4.15;2.42;;;24.10;74.70;;;;;;2207592;57;21444;-70
2021/07/27 07:47:37;;;;;;;4.75;3.10;;;24.10;74.60;;;;;;2211435;57;21106;-73
2021/07/27 07:50:04;;;;;;;4.65;2.83;;;24.10;74.30;;;;;;2305287;57;20995;-72
2021/07/27 07:52:31;;;;;;;4.78;2.97;;;24.20;74.20;;;;;;2211614;57;20992;-73
2021/07/27 07:54:58;;;;;;;4.15;2.70;;;24.20;73.80;;;;;;2214211;57;21011;-71
2021/07/27 07:57:26;;;;;;;5.95;3.47;;;24.20;73.80;;;;;;2391380;57;20950;-72
2021/07/27 07:59:52;;;;;;;4.07;2.87;;;24.20;73.60;;;;;;2207024;57;20979;-69
2021/07/27 08:02:19;;;;;;;4.35;2.55;;;24.20;73.70;;;;;;2425090;57;20976;-71
2021/07/27 08:04:48;;;;;;;4.80;2.83;;;24.20;73.90;;;;;;2216121;57;20964;-69
2021/07/27 08:07:14;;;;;;;4.25;2.83;;;24.20;74.20;;;;;;2203317;57;20995;-71
2021/07/27 08:09:41;;;;;;;6.07;3.00;;;24.30;74.40;;;;;;2281714;57;21046;-70
2021/07/27 08:12:07;;;;;;;4.30;2.47;;;24.30;74.40;;;;;;2205491;57;20960;-70
2021/07/27 08:14:34;;;;;;;4.95;2.95;;;24.40;74.80;;;;;;2374955;57;21845;-70
2021/07/27 08:17:01;;;;;;;5.75;3.05;;;24.40;74.70;;;;;;2215754;57;20983;-70
2021/07/27 08:19:30;;;;;;;4.47;2.62;;;24.50;74.90;;;;;;2392407;57;20979;-70
2021/07/27 08:21:57;;;;;;;4.75;2.87;;;24.60;75.20;;;;;;2194474;57;21048;-71
2021/07/27 08:24:25;;;;;;;4.60;3.25;;;24.60;74.90;;;;;;2234888;57;20978;-69
2021/07/27 08:26:52;;;;;;;5.35;3.20;;;24.70;74.70;;;;;;2189498;58;20985;-70
2021/07/27 08:29:18;;;;;;;4.65;2.75;;;24.80;74.70;;;;;;2416762;57;20992;-70
2021/07/27 08:31:45;;;;;;;5.30;2.87;;;24.80;74.60;;;;;;2196990;57;21004;-74
2021/07/27 08:34:17;;;;;;;4.75;2.85;;;24.90;74.80;;;;;;2401500;57;21938;-69
2021/07/27 08:36:46;;;;;;;;;;;25.00;74.80;;;;;;2211341;57;21010;-72
2021/07/27 08:39:13;;;;;;;5.35;3.12;;;25.10;72.40;;;;;;2188835;58;20076;-71
2021/07/27 08:41:40;;;;;;;5.03;3.28;;;25.10;73.80;;;;;;2190575;58;20995;-69
2021/07/27 08:44:17;;;;;;;4.82;3.08;;;25.20;73.80;;;;;;2209180;57;21040;-70
2021/07/27 08:46:45;;;;;;;6.22;3.20;;;25.20;72.10;;;;;;2213050;57;21821;-69
2021/07/27 08:49:16;;;;;;;4.37;2.67;;;25.20;73.10;;;;;;2209303;57;21048;-69
2021/07/27 08:51:43;;;;;;;4.53;2.90;;;25.30;73.10;;;;;;2188592;58;20942;-70
2021/07/27 08:54:11;;;;;;;5.75;3.35;;;25.30;73.50;;;;;;2410598;57;21843;-71
2021/07/27 08:56:50;;;;;;;5.37;3.67;;;25.40;73.60;;;;;;2213750;57;21934;-70
2021/07/27 08:59:17;;;;;;;4.82;2.80;;;25.40;72.00;;;;;;2218543;57;21011;-71
2021/07/27 09:01:43;;;;;;;4.57;2.97;;;25.50;73.50;;;;;;2274814;57;21568;-73
2021/07/27 09:04:10;;;;;;;5.00;2.70;;;25.60;74.80;;;;;;2171474;58;21000;-70
2021/07/27 09:06:37;;;;;;;4.03;2.70;;;25.70;74.40;;;;;;2195445;57;21124;-71
2021/07/27 09:09:11;;;;;;;4.68;3.00;;;25.80;74.40;;;;;;2345912;57;20955;-72
2021/07/27 09:11:59;;;;;;;4.93;3.25;;;25.90;73.60;;;;;;2192865;57;21034;-72
2021/07/27 09:14:26;;;;;;;5.25;2.90;;;26.00;71.60;;;;;;2219830;57;21026;-70
2021/07/27 09:16:53;;;;;;;5.22;3.40;;;26.10;73.10;;;;;;2270319;57;21020;-70
2021/07/27 09:19:20;;;;;;;4.15;2.85;;;26.20;73.10;;;;;;2193725;57;21079;-72
2021/07/27 09:21:46;;;;;;;5.87;3.15;;;26.20;73.00;;;;;;2189656;57;20991;-72
2021/07/27 09:24:24;;;;;;;4.12;2.85;;;26.30;72.80;;;;;;2210090;57;21019;-68
2021/07/27 09:27:27;;;;;;;6.20;3.53;;;26.40;71.40;;;;;;2214728;57;21009;-71
2021/07/27 09:29:53;;;;;;;4.65;3.12;;;26.40;69.20;;;;;;2207007;57;20976;-70
2021/07/27 09:32:20;;;;;;;4.90;3.28;;;26.50;71.80;;;;;;2207057;57;21056;-70
2021/07/27 09:34:49;;;;;;;4.65;2.70;;;26.50;71.80;;;;;;2396488;57;20987;-68
2021/07/27 09:37:18;;;;;;;4.62;2.87;;;26.60;72.10;;;;;;2173025;58;21014;-70
2021/07/27 09:39:45;;;;;;;4.47;2.53;;;26.60;72.10;;;;;;2299920;57;21048;-69
2021/07/27 09:42:13;;;;;;;4.10;2.90;;;26.70;72.30;;;;;;2193773;57;21026;-73
2021/07/27 09:44:40;;;;;;;4.57;3.00;;;26.70;72.20;;;;;;2209171;58;21122;-71
2021/07/27 09:47:06;;;;;;;4.95;3.12;;;26.80;72.10;;;;;;2195231;57;21046;-70
2021/07/27 09:49:33;;;;;;;4.07;2.78;;;26.90;71.80;;;;;;2199724;57;21491;-70
2021/07/27 09:51:59;;;;;;;4.75;2.95;;;27.00;71.80;;;;;;2373393;57;20998;-69
2021/07/27 09:54:28;;;;;;;4.75;2.80;;;27.10;71.60;;;;;;2207088;57;20992;-72
2021/07/27 09:56:55;;;;;;;4.60;3.30;;;27.10;71.40;;;;;;2214325;57;20980;-69
2021/07/27 09:59:24;;;;;;;4.60;3.30;;;27.20;70.90;;;;;;2172835;58;20990;-71
2021/07/27 10:02:07;;;;;;;4.60;2.92;;;27.20;69.70;;;;;;2207855;57;21112;-70
2021/07/27 10:04:38;;;;;;;4.40;2.78;;;27.30;67.80;;;;;;2207051;57;21325;-71
2021/07/27 10:07:05;;;;;;;5.25;2.67;;;27.30;70.00;;;;;;2215040;57;21011;-71
2021/07/27 10:09:32;;;;;;;5.10;3.20;;;27.30;70.30;;;;;;2213075;57;21039;-73
2021/07/27 10:12:12;;;;;;;4.62;2.95;;;27.40;70.00;;;;;;2178400;57;21003;-71
2021/07/27 10:14:48;;;;;;;4.95;3.25;;;27.40;68.20;;;;;;2206522;57;21534;-71
2021/07/27 10:17:14;;;;;;;4.68;3.22;;;27.50;68.00;;;;;;2196690;57;20978;-73
2021/07/27 10:19:52;;;;;;;4.95;2.90;;;27.50;69.20;;;;;;2202436;57;20964;-70
2021/07/27 10:22:19;;;;;;;3.80;2.75;;;27.60;67.40;;;;;;2214596;57;21055;-71
2021/07/27 10:24:50;;;;;;;4.00;2.60;;;27.60;69.10;;;;;;2197858;58;21050;-71
2021/07/27 10:27:21;;;;;;;4.60;2.75;;;27.60;69.10;;;;;;2209020;57;21284;-74
2021/07/27 10:29:52;;;;;;;4.82;2.87;;;27.60;69.30;;;;;;2189335;58;21091;-71
2021/07/27 10:32:19;;;;;;;5.07;2.60;;;27.70;69.10;;;;;;2199891;57;21835;-70
2021/07/27 10:34:45;;;;;;;4.55;2.58;;;27.70;68.50;;;;;;2201186;57;20966;-70
2021/07/27 10:37:15;;;;;;;4.40;2.67;;;27.80;68.50;;;;;;2217467;57;20986;-70
2021/07/27 10:39:51;;;;;;;4.78;2.53;;;27.80;68.30;;;;;;2220945;57;21119;-71
2021/07/27 10:42:17;;;;;;;4.30;2.33;;;27.80;67.00;;;;;;2206319;57;21022;-71
2021/07/27 10:44:44;;;;;;;3.75;2.55;;;27.80;68.30;;;;;;2212906;57;21008;-72
2021/07/27 10:47:20;;;;;;;5.00;2.40;;;27.80;68.10;;;;;;2193250;57;21011;-70
2021/07/27 10:49:57;;;;;;;3.97;2.67;;;27.80;66.80;;;;;;2193493;57;20998;-70
2021/07/27 10:52:25;;;;;;;3.90;2.37;;;27.80;67.50;;;;;;2216131;57;21067;-75
2021/07/27 10:54:52;;;;;;;4.72;2.47;;;27.80;67.80;;;;;;2217419;57;20979;-72
2021/07/27 10:57:22;;;;;;;4.65;2.80;;;27.80;67.60;;;;;;2213323;57;21051;-70
2021/07/27 10:59:49;;;;;;;5.47;2.72;;;27.80;67.30;;;;;;2201902;57;21911;-70
2021/07/27 11:02:15;;;;;;;6.25;2.92;;;27.80;67.70;;;;;;2198218;57;21049;-70
2021/07/27 11:04:43;;;;;;;4.40;2.87;;;27.80;67.00;;;;;;2199454;57;20996;-70
2021/07/27 11:07:15;;;;;;;4.55;2.80;;;27.80;66.60;;;;;;2217290;57;21018;-69
2021/07/27 11:09:52;;;;;;;3.75;2.42;;;27.80;65.60;;;;;;2200727;57;20978;-71
2021/07/27 11:14:10;;;;;;;3.97;2.65;;;27.80;65.70;;;;;;2391253;57;21977;-71
2021/07/27 11:16:42;;;;;;;3.65;2.40;;;27.90;64.60;;;;;;2202221;57;21060;-73
2021/07/27 11:19:11;;;;;;;3.72;2.17;;;27.90;66.30;;;;;;2208582;57;21079;-72
2021/07/27 11:21:40;;;;;;;4.20;2.58;;;27.90;66.90;;;;;;2211547;57;21062;-72
2021/07/27 11:24:07;;;;;;;4.12;2.53;;;27.90;66.90;;;;;;2191096;57;20978;-73
2021/07/27 11:26:38;;;;;;;4.95;2.80;;;27.90;67.80;;;;;;2311257;57;21112;-70
2021/07/27 11:29:11;;;;;;;3.80;2.25;;;28.00;67.20;;;;;;2208624;57;21054;-72
2021/07/27 11:31:55;;;;;;;;;;;28.10;67.10;;;;;;2202387;57;21816;-71
2021/07/27 11:34:28;;;;;;;3.42;2.15;;;28.10;66.60;;;;;;2196533;57;20113;-73
2021/07/27 11:36:54;;;;;;;4.32;2.58;;;28.20;67.60;;;;;;2326546;57;21928;-71
2021/07/27 11:39:20;;;;;;;4.22;2.33;;;28.30;68.80;;;;;;2205820;57;21038;-71
2021/07/27 11:42:03;;;;;;;4.32;2.60;;;28.40;69.00;;;;;;2196438;57;21054;-71
2021/07/27 11:44:29;;;;;;;3.35;2.35;;;28.40;67.20;;;;;;2174223;58;21079;-72
2021/07/27 11:46:56;;;;;;;4.45;2.92;;;28.50;69.10;;;;;;2210153;57;21040;-71
2021/07/27 11:49:23;;;;;;;4.75;2.90;;;28.60;68.70;;;;;;2195502;57;21515;-73
2021/07/27 11:51:59;;;;;;;5.62;2.62;;;28.70;68.30;;;;;;2178903;58;21056;-70
2021/07/27 11:54:26;;;;;;;4.12;2.80;;;28.80;66.50;;;;;;2202378;57;20992;-70
2021/07/27 11:56:54;;;;;;;5.00;2.33;;;28.80;68.10;;;;;;2344272;57;21722;-71
2021/07/27 11:59:27;;;;;;;4.03;3.00;;;28.90;67.70;;;;;;2402058;57;21024;-67
2021/07/27 12:01:54;;;;;;;3.75;2.62;;;29.00;65.90;;;;;;2257785;57;21044;-68
2021/07/27 12:04:20;;;;;;;4.72;3.10;;;29.00;67.20;;;;;;2218062;57;21882;-72
2021/07/27 12:06:53;;;;;;;4.18;2.90;;;29.10;66.20;;;;;;2273415;57;21065;-73
2021/07/27 12:09:21;;;;;;;3.80;2.42;;;29.10;63.60;;;;;;2194993;57;21016;-74
2021/07/27 12:11:49;;;;;;;4.25;2.35;;;29.10;65.50;;;;;;2353705;57;20998;-72
2021/07/27 12:14:15;;;;;;;3.50;2.20;;;29.10;65.90;;;;;;2189323;57;21060;-72
2021/07/27 12:16:41;;;;;;;4.50;2.42;;;29.10;66.30;;;;;;2211977;57;22045;-72
2021/07/27 12:19:09;;;;;;;4.12;2.70;;;29.20;66.30;;;;;;2217826;57;21001;-72
2021/07/27 12:21:36;;;;;;;6.57;2.60;;;29.30;66.00;;;;;;2283856;57;21100;-71
2021/07/27 12:24:02;;;;;;;3.90;2.55;;;29.30;65.60;;;;;;2215097;57;21075;-74
2021/07/27 12:26:34;;;;;;;3.70;2.40;;;29.30;63.60;;;;;;2218026;57;21082;-71
2021/07/27 12:29:01;;;;;;;3.78;2.33;;;29.30;63.90;;;;;;2214433;57;20988;-71
2021/07/27 12:31:27;;;;;;;3.25;2.12;;;29.30;64.00;;;;;;2329972;57;20960;-71
2021/07/27 12:33:54;;;;;;;4.03;2.30;;;29.30;63.90;;;;;;2408208;57;21684;-70
2021/07/27 12:36:20;;;;;;;3.53;2.40;;;29.30;64.00;;;;;;2187156;57;21028;-72
2021/07/27 12:38:47;;;;;;;4.15;2.60;;;29.30;63.20;;;;;;2209237;57;20983;-72
2021/07/27 12:41:14;;;;;;;3.50;2.17;;;29.30;63.60;;;;;;2202600;57;21014;-71
2021/07/27 12:43:42;;;;;;;4.18;2.70;;;29.30;63.20;;;;;;2210896;57;20972;-71
2021/07/27 12:46:11;;;;;;;3.67;2.30;;;29.30;63.40;;;;;;2359534;57;21023;-73
2021/07/27 12:48:37;;;;;;;4.10;2.40;;;29.30;62.60;;;;;;2179688;57;21171;-72
2021/07/27 12:51:05;;;;;;;3.85;2.37;;;29.30;63.50;;;;;;2209552;57;21885;-69
2021/07/27 12:53:32;;;;;;;6.30;3.10;;;29.40;63.30;;;;;;2182173;58;21036;-71
2021/07/27 12:55:58;;;;;;;4.00;2.62;;;29.40;62.30;;;;;;2204293;57;21030;-72
2021/07/27 12:58:25;;;;;;;3.62;2.22;;;29.40;62.90;;;;;;2426173;57;21006;-73
2021/07/27 13:00:52;;;;;;;3.22;2.20;;;29.40;62.60;;;;;;2192246;57;20956;-72
2021/07/27 13:03:18;;;;;;;3.35;2.30;;;29.40;62.40;;;;;;2190072;57;21075;-72
2021/07/27 13:05:46;;;;;;;3.50;2.30;;;29.50;63.20;;;;;;2258530;57;21004;-72
2021/07/27 13:08:13;;;;;;;3.50;2.35;;;29.50;63.10;;;;;;2377488;57;21024;-70
2021/07/27 13:10:40;;;;;;;3.20;2.35;;;29.50;63.20;;;;;;2211740;57;21520;-72